sensor_id;sensor_type;location;lat;lon;timestamp;P1;durP1;ratioP1;P2;durP2;ratioP2
57295;SDS011;43146;50.976;18.216;2024-01-27T00:00:08;13.80;;;4.20;;
57295;SDS011;43146;50.976;18.216;2024-01-27T00:02:35;12.00;;;2.20;;
57295;SDS011;43146;50.976;18.216;2024-01-27T00:05:01;13.80;;;2.20;;
57295;SDS011;43146;50.976;18.216;2024-01-27T00:07:30;7.80;;;2.10;;
57295;SDS011;43146;50.976;18.216;2024-01-27T00:09:57;11.40;;;2.60;;
57295;SDS011;43146;50.976;18.216;2024-01-27T00:12:24;15.80;;;3.20;;
57295;SDS011;43146;50.976;18.216;2024-01-27T00:14:49;15.10;;;2.90;;
57295;SDS011;43146;50.976;18.216;2024-01-27T00:17:15;9.80;;;2.10;;
57295;SDS011;43146;50.976;18.216;2024-01-27T00:19:41;12.00;;;2.20;;
57295;SDS011;43146;50.976;18.216;2024-01-27T00:22:07;14.60;;;2.60;;
57295;SDS011;43146;50.976;18.216;2024-01-27T00:24:33;10.10;;;2.40;;
57295;SDS011;43146;50.976;18.216;2024-01-27T00:26:59;12.40;;;2.30;;
57295;SDS011;43146;50.976;18.216;2024-01-27T00:29:26;11.10;;;2.10;;
57295;SDS011;43146;50.976;18.216;2024-01-27T00:31:52;16.40;;;3.10;;
57295;SDS011;43146;50.976;18.216;2024-01-27T00:34:19;10.50;;;2.50;;
57295;SDS011;43146;50.976;18.216;2024-01-27T00:36:45;15.70;;;2.90;;
57295;SDS011;43146;50.976;18.216;2024-01-27T00:39:17;14.70;;;3.10;;
57295;SDS011;43146;50.976;18.216;2024-01-27T00:41:43;17.80;;;3.30;;
57295;SDS011;43146;50.976;18.216;2024-01-27T00:44:09;11.10;;;2.50;;
57295;SDS011;43146;50.976;18.216;2024-01-27T00:46:38;13.60;;;3.10;;
57295;SDS011;43146;50.976;18.216;2024-01-27T00:49:04;13.70;;;3.10;;
57295;SDS011;43146;50.976;18.216;2024-01-27T00:51:30;13.90;;;2.70;;
57295;SDS011;43146;50.976;18.216;2024-01-27T00:53:55;12.60;;;2.40;;
57295;SDS011;43146;50.976;18.216;2024-01-27T00:56:21;11.70;;;2.60;;
57295;SDS011;43146;50.976;18.216;2024-01-27T00:58:46;12.40;;;3.10;;
57295;SDS011;43146;50.976;18.216;2024-01-27T01:01:12;11.30;;;2.60;;
57295;SDS011;43146;50.976;18.216;2024-01-27T01:03:38;16.50;;;3.00;;
57295;SDS011;43146;50.976;18.216;2024-01-27T01:06:04;16.10;;;2.90;;
57295;SDS011;43146;50.976;18.216;2024-01-27T01:08:30;18.10;;;3.00;;
57295;SDS011;43146;50.976;18.216;2024-01-27T01:10:56;15.10;;;2.50;;
57295;SDS011;43146;50.976;18.216;2024-01-27T01:13:22;15.10;;;2.90;;
57295;SDS011;43146;50.976;18.216;2024-01-27T01:15:48;14.60;;;2.60;;
57295;SDS011;43146;50.976;18.216;2024-01-27T01:18:13;13.00;;;2.70;;
57295;SDS011;43146;50.976;18.216;2024-01-27T01:20:39;15.90;;;2.50;;
57295;SDS011;43146;50.976;18.216;2024-01-27T01:23:05;13.60;;;2.60;;
57295;SDS011;43146;50.976;18.216;2024-01-27T01:25:30;15.80;;;3.20;;
57295;SDS011;43146;50.976;18.216;2024-01-27T01:27:56;12.80;;;2.70;;
57295;SDS011;43146;50.976;18.216;2024-01-27T01:30:22;13.10;;;3.00;;
57295;SDS011;43146;50.976;18.216;2024-01-27T01:32:47;14.20;;;3.70;;
57295;SDS011;43146;50.976;18.216;2024-01-27T01:35:13;12.30;;;2.80;;
57295;SDS011;43146;50.976;18.216;2024-01-27T01:37:38;11.30;;;2.40;;
57295;SDS011;43146;50.976;18.216;2024-01-27T01:40:05;18.30;;;3.10;;
57295;SDS011;43146;50.976;18.216;2024-01-27T01:42:32;16.80;;;2.80;;
57295;SDS011;43146;50.976;18.216;2024-01-27T01:44:57;15.60;;;2.50;;
57295;SDS011;43146;50.976;18.216;2024-01-27T01:47:23;12.30;;;2.30;;
57295;SDS011;43146;50.976;18.216;2024-01-27T01:49:49;10.40;;;2.10;;
57295;SDS011;43146;50.976;18.216;2024-01-27T01:52:15;15.40;;;2.50;;
57295;SDS011;43146;50.976;18.216;2024-01-27T01:54:48;10.00;;;2.10;;
57295;SDS011;43146;50.976;18.216;2024-01-27T01:57:14;14.80;;;2.70;;
57295;SDS011;43146;50.976;18.216;2024-01-27T01:59:40;15.80;;;2.40;;
57295;SDS011;43146;50.976;18.216;2024-01-27T02:02:07;11.20;;;2.80;;
57295;SDS011;43146;50.976;18.216;2024-01-27T02:04:39;10.90;;;2.30;;
57295;SDS011;43146;50.976;18.216;2024-01-27T02:07:06;9.40;;;2.00;;
57295;SDS011;43146;50.976;18.216;2024-01-27T02:09:31;11.90;;;2.80;;
57295;SDS011;43146;50.976;18.216;2024-01-27T02:11:57;13.10;;;2.40;;
57295;SDS011;43146;50.976;18.216;2024-01-27T02:14:23;17.20;;;2.70;;
57295;SDS011;43146;50.976;18.216;2024-01-27T02:16:50;14.90;;;2.50;;
57295;SDS011;43146;50.976;18.216;2024-01-27T02:19:16;15.70;;;2.60;;
57295;SDS011;43146;50.976;18.216;2024-01-27T02:21:42;14.10;;;2.40;;
57295;SDS011;43146;50.976;18.216;2024-01-27T02:24:07;12.50;;;2.80;;
57295;SDS011;43146;50.976;18.216;2024-01-27T02:26:33;11.30;;;2.40;;
57295;SDS011;43146;50.976;18.216;2024-01-27T02:28:58;15.80;;;2.50;;
57295;SDS011;43146;50.976;18.216;2024-01-27T02:31:24;12.30;;;2.30;;
57295;SDS011;43146;50.976;18.216;2024-01-27T02:33:50;12.40;;;2.10;;
57295;SDS011;43146;50.976;18.216;2024-01-27T02:36:15;15.30;;;2.40;;
57295;SDS011;43146;50.976;18.216;2024-01-27T02:38:41;17.00;;;2.80;;
57295;SDS011;43146;50.976;18.216;2024-01-27T02:41:06;12.60;;;2.50;;
57295;SDS011;43146;50.976;18.216;2024-01-27T02:43:32;14.20;;;2.70;;
57295;SDS011;43146;50.976;18.216;2024-01-27T02:45:57;15.90;;;2.90;;
57295;SDS011;43146;50.976;18.216;2024-01-27T02:48:23;16.00;;;3.10;;
57295;SDS011;43146;50.976;18.216;2024-01-27T02:50:48;10.70;;;2.30;;
57295;SDS011;43146;50.976;18.216;2024-01-27T02:53:14;15.50;;;2.50;;
57295;SDS011;43146;50.976;18.216;2024-01-27T02:55:39;13.50;;;2.10;;
57295;SDS011;43146;50.976;18.216;2024-01-27T02:58:05;20.30;;;2.90;;
57295;SDS011;43146;50.976;18.216;2024-01-27T03:00:30;11.10;;;2.20;;
57295;SDS011;43146;50.976;18.216;2024-01-27T03:02:56;14.10;;;2.50;;
57295;SDS011;43146;50.976;18.216;2024-01-27T03:05:23;17.50;;;3.40;;
57295;SDS011;43146;50.976;18.216;2024-01-27T03:07:52;15.40;;;3.40;;
57295;SDS011;43146;50.976;18.216;2024-01-27T03:10:17;16.30;;;2.80;;
57295;SDS011;43146;50.976;18.216;2024-01-27T03:12:43;16.90;;;2.50;;
57295;SDS011;43146;50.976;18.216;2024-01-27T03:15:09;22.80;;;3.30;;
57295;SDS011;43146;50.976;18.216;2024-01-27T03:17:34;18.20;;;2.50;;
57295;SDS011;43146;50.976;18.216;2024-01-27T03:20:00;15.40;;;2.80;;
57295;SDS011;43146;50.976;18.216;2024-01-27T03:22:25;16.00;;;2.70;;
57295;SDS011;43146;50.976;18.216;2024-01-27T03:24:51;10.40;;;2.30;;
57295;SDS011;43146;50.976;18.216;2024-01-27T03:27:18;14.30;;;2.50;;
57295;SDS011;43146;50.976;18.216;2024-01-27T03:29:44;18.30;;;2.20;;
57295;SDS011;43146;50.976;18.216;2024-01-27T03:32:09;13.90;;;2.50;;
57295;SDS011;43146;50.976;18.216;2024-01-27T03:34:35;14.70;;;2.70;;
57295;SDS011;43146;50.976;18.216;2024-01-27T03:37:00;14.70;;;2.80;;
57295;SDS011;43146;50.976;18.216;2024-01-27T03:39:26;15.80;;;3.10;;
57295;SDS011;43146;50.976;18.216;2024-01-27T03:41:52;15.20;;;2.50;;
57295;SDS011;43146;50.976;18.216;2024-01-27T03:44:18;14.40;;;2.70;;
57295;SDS011;43146;50.976;18.216;2024-01-27T03:46:44;18.20;;;3.10;;
57295;SDS011;43146;50.976;18.216;2024-01-27T03:49:09;17.50;;;3.20;;
57295;SDS011;43146;50.976;18.216;2024-01-27T03:51:35;13.10;;;3.10;;
57295;SDS011;43146;50.976;18.216;2024-01-27T03:54:01;11.40;;;2.60;;
57295;SDS011;43146;50.976;18.216;2024-01-27T03:56:26;12.90;;;3.20;;
57295;SDS011;43146;50.976;18.216;2024-01-27T03:58:52;13.70;;;3.30;;
57295;SDS011;43146;50.976;18.216;2024-01-27T04:01:18;13.10;;;2.60;;
57295;SDS011;43146;50.976;18.216;2024-01-27T04:03:43;14.90;;;2.70;;
57295;SDS011;43146;50.976;18.216;2024-01-27T04:06:09;18.20;;;2.90;;
57295;SDS011;43146;50.976;18.216;2024-01-27T04:08:34;14.70;;;2.70;;
57295;SDS011;43146;50.976;18.216;2024-01-27T04:11:00;14.10;;;2.70;;
57295;SDS011;43146;50.976;18.216;2024-01-27T04:13:25;17.70;;;2.80;;
57295;SDS011;43146;50.976;18.216;2024-01-27T04:15:51;15.00;;;2.90;;
57295;SDS011;43146;50.976;18.216;2024-01-27T04:18:19;16.10;;;3.30;;
57295;SDS011;43146;50.976;18.216;2024-01-27T04:20:44;15.00;;;3.00;;
57295;SDS011;43146;50.976;18.216;2024-01-27T04:23:11;19.40;;;3.20;;
57295;SDS011;43146;50.976;18.216;2024-01-27T04:25:36;15.00;;;3.00;;
57295;SDS011;43146;50.976;18.216;2024-01-27T04:28:02;12.20;;;2.70;;
57295;SDS011;43146;50.976;18.216;2024-01-27T04:30:28;21.70;;;2.70;;
57295;SDS011;43146;50.976;18.216;2024-01-27T04:32:54;11.10;;;2.30;;
57295;SDS011;43146;50.976;18.216;2024-01-27T04:35:20;18.90;;;3.00;;
57295;SDS011;43146;50.976;18.216;2024-01-27T04:37:45;16.30;;;2.80;;
57295;SDS011;43146;50.976;18.216;2024-01-27T04:40:11;17.90;;;3.20;;
57295;SDS011;43146;50.976;18.216;2024-01-27T04:42:37;16.00;;;2.70;;
57295;SDS011;43146;50.976;18.216;2024-01-27T04:45:04;17.10;;;2.80;;
57295;SDS011;43146;50.976;18.216;2024-01-27T04:47:31;14.20;;;2.90;;
57295;SDS011;43146;50.976;18.216;2024-01-27T04:49:57;17.30;;;4.70;;
57295;SDS011;43146;50.976;18.216;2024-01-27T04:52:23;20.60;;;3.80;;
57295;SDS011;43146;50.976;18.216;2024-01-27T04:54:48;18.40;;;3.90;;
57295;SDS011;43146;50.976;18.216;2024-01-27T04:57:14;19.10;;;3.00;;
57295;SDS011;43146;50.976;18.216;2024-01-27T04:59:40;18.60;;;3.90;;
57295;SDS011;43146;50.976;18.216;2024-01-27T05:02:06;17.70;;;3.90;;
57295;SDS011;43146;50.976;18.216;2024-01-27T05:04:32;17.00;;;2.90;;
57295;SDS011;43146;50.976;18.216;2024-01-27T05:06:57;22.10;;;3.90;;
57295;SDS011;43146;50.976;18.216;2024-01-27T05:09:23;19.70;;;3.40;;
57295;SDS011;43146;50.976;18.216;2024-01-27T05:11:49;14.90;;;3.90;;
57295;SDS011;43146;50.976;18.216;2024-01-27T05:14:18;16.70;;;3.30;;
57295;SDS011;43146;50.976;18.216;2024-01-27T05:16:43;17.60;;;5.10;;
57295;SDS011;43146;50.976;18.216;2024-01-27T05:19:10;14.20;;;2.90;;
57295;SDS011;43146;50.976;18.216;2024-01-27T05:21:35;62.10;;;22.30;;
57295;SDS011;43146;50.976;18.216;2024-01-27T05:24:01;35.30;;;11.40;;
57295;SDS011;43146;50.976;18.216;2024-01-27T05:26:28;44.70;;;14.90;;
57295;SDS011;43146;50.976;18.216;2024-01-27T05:28:54;36.60;;;13.80;;
57295;SDS011;43146;50.976;18.216;2024-01-27T05:31:19;21.80;;;6.60;;
57295;SDS011;43146;50.976;18.216;2024-01-27T05:33:45;18.30;;;3.10;;
57295;SDS011;43146;50.976;18.216;2024-01-27T05:36:11;14.20;;;3.10;;
57295;SDS011;43146;50.976;18.216;2024-01-27T05:38:36;17.80;;;3.40;;
57295;SDS011;43146;50.976;18.216;2024-01-27T05:41:02;18.30;;;3.20;;
57295;SDS011;43146;50.976;18.216;2024-01-27T05:43:28;20.00;;;5.60;;
57295;SDS011;43146;50.976;18.216;2024-01-27T05:45:54;17.60;;;5.20;;
57295;SDS011;43146;50.976;18.216;2024-01-27T05:48:20;15.50;;;4.30;;
57295;SDS011;43146;50.976;18.216;2024-01-27T05:50:55;16.50;;;4.60;;
57295;SDS011;43146;50.976;18.216;2024-01-27T05:53:22;18.50;;;4.20;;
57295;SDS011;43146;50.976;18.216;2024-01-27T05:55:48;15.40;;;3.80;;
57295;SDS011;43146;50.976;18.216;2024-01-27T05:58:13;19.60;;;3.50;;
57295;SDS011;43146;50.976;18.216;2024-01-27T06:00:39;18.30;;;3.30;;
57295;SDS011;43146;50.976;18.216;2024-01-27T06:03:04;17.30;;;3.00;;
57295;SDS011;43146;50.976;18.216;2024-01-27T06:05:30;13.20;;;2.90;;
57295;SDS011;43146;50.976;18.216;2024-01-27T06:07:56;14.80;;;3.50;;
57295;SDS011;43146;50.976;18.216;2024-01-27T06:10:21;14.80;;;3.30;;
57295;SDS011;43146;50.976;18.216;2024-01-27T06:12:49;18.60;;;4.50;;
57295;SDS011;43146;50.976;18.216;2024-01-27T06:15:14;17.30;;;3.80;;
57295;SDS011;43146;50.976;18.216;2024-01-27T06:17:41;24.90;;;12.50;;
57295;SDS011;43146;50.976;18.216;2024-01-27T06:20:06;15.70;;;3.30;;
57295;SDS011;43146;50.976;18.216;2024-01-27T06:22:33;12.70;;;3.40;;
57295;SDS011;43146;50.976;18.216;2024-01-27T06:24:59;18.30;;;4.30;;
57295;SDS011;43146;50.976;18.216;2024-01-27T06:27:25;107.20;;;23.80;;
57295;SDS011;43146;50.976;18.216;2024-01-27T06:29:50;33.00;;;8.00;;
57295;SDS011;43146;50.976;18.216;2024-01-27T06:32:16;63.70;;;17.00;;
57295;SDS011;43146;50.976;18.216;2024-01-27T06:34:42;85.40;;;25.60;;
57295;SDS011;43146;50.976;18.216;2024-01-27T06:37:07;33.80;;;10.40;;
57295;SDS011;43146;50.976;18.216;2024-01-27T06:39:33;30.30;;;8.20;;
57295;SDS011;43146;50.976;18.216;2024-01-27T06:41:59;34.50;;;9.30;;
57295;SDS011;43146;50.976;18.216;2024-01-27T06:44:24;22.10;;;5.30;;
57295;SDS011;43146;50.976;18.216;2024-01-27T06:46:50;20.80;;;4.70;;
57295;SDS011;43146;50.976;18.216;2024-01-27T06:49:16;17.50;;;4.50;;
57295;SDS011;43146;50.976;18.216;2024-01-27T06:51:43;17.40;;;4.10;;
57295;SDS011;43146;50.976;18.216;2024-01-27T06:54:08;18.00;;;3.40;;
57295;SDS011;43146;50.976;18.216;2024-01-27T06:56:34;17.80;;;3.90;;
57295;SDS011;43146;50.976;18.216;2024-01-27T06:59:00;15.80;;;3.20;;
57295;SDS011;43146;50.976;18.216;2024-01-27T07:01:25;18.90;;;3.50;;
57295;SDS011;43146;50.976;18.216;2024-01-27T07:03:51;21.50;;;5.20;;
57295;SDS011;43146;50.976;18.216;2024-01-27T07:06:17;23.80;;;5.50;;
57295;SDS011;43146;50.976;18.216;2024-01-27T07:08:43;29.60;;;9.80;;
57295;SDS011;43146;50.976;18.216;2024-01-27T07:11:08;25.50;;;9.50;;
57295;SDS011;43146;50.976;18.216;2024-01-27T07:13:34;17.70;;;4.70;;
57295;SDS011;43146;50.976;18.216;2024-01-27T07:16:00;18.70;;;3.80;;
57295;SDS011;43146;50.976;18.216;2024-01-27T07:18:26;18.80;;;3.40;;
57295;SDS011;43146;50.976;18.216;2024-01-27T07:20:52;21.90;;;5.10;;
57295;SDS011;43146;50.976;18.216;2024-01-27T07:23:17;22.80;;;5.20;;
57295;SDS011;43146;50.976;18.216;2024-01-27T07:25:43;16.90;;;6.30;;
57295;SDS011;43146;50.976;18.216;2024-01-27T07:28:09;23.10;;;6.30;;
57295;SDS011;43146;50.976;18.216;2024-01-27T07:30:35;26.20;;;5.50;;
57295;SDS011;43146;50.976;18.216;2024-01-27T07:33:01;23.50;;;6.40;;
57295;SDS011;43146;50.976;18.216;2024-01-27T07:35:26;14.40;;;4.60;;
57295;SDS011;43146;50.976;18.216;2024-01-27T07:37:53;15.20;;;3.50;;
57295;SDS011;43146;50.976;18.216;2024-01-27T07:40:19;20.40;;;3.70;;
57295;SDS011;43146;50.976;18.216;2024-01-27T07:42:45;22.40;;;4.40;;
57295;SDS011;43146;50.976;18.216;2024-01-27T07:45:11;26.10;;;9.40;;
57295;SDS011;43146;50.976;18.216;2024-01-27T07:47:37;18.40;;;4.00;;
57295;SDS011;43146;50.976;18.216;2024-01-27T07:50:03;18.20;;;4.90;;
57295;SDS011;43146;50.976;18.216;2024-01-27T07:52:29;25.60;;;5.70;;
57295;SDS011;43146;50.976;18.216;2024-01-27T07:54:55;16.90;;;4.30;;
57295;SDS011;43146;50.976;18.216;2024-01-27T07:57:21;21.20;;;4.60;;
57295;SDS011;43146;50.976;18.216;2024-01-27T07:59:47;23.70;;;4.80;;
57295;SDS011;43146;50.976;18.216;2024-01-27T08:02:12;16.50;;;3.70;;
57295;SDS011;43146;50.976;18.216;2024-01-27T08:04:38;19.60;;;4.60;;
57295;SDS011;43146;50.976;18.216;2024-01-27T08:07:04;24.90;;;4.40;;
57295;SDS011;43146;50.976;18.216;2024-01-27T08:09:35;18.70;;;5.80;;
57295;SDS011;43146;50.976;18.216;2024-01-27T08:12:03;21.40;;;4.30;;
57295;SDS011;43146;50.976;18.216;2024-01-27T08:14:29;24.40;;;5.70;;
57295;SDS011;43146;50.976;18.216;2024-01-27T08:16:59;22.50;;;6.70;;
57295;SDS011;43146;50.976;18.216;2024-01-27T08:19:25;23.10;;;7.30;;
57295;SDS011;43146;50.976;18.216;2024-01-27T08:21:50;34.10;;;9.70;;
57295;SDS011;43146;50.976;18.216;2024-01-27T08:24:16;26.30;;;8.50;;
57295;SDS011;43146;50.976;18.216;2024-01-27T08:26:42;30.50;;;7.80;;
57295;SDS011;43146;50.976;18.216;2024-01-27T08:29:08;81.00;;;20.30;;
57295;SDS011;43146;50.976;18.216;2024-01-27T08:31:34;26.20;;;6.30;;
57295;SDS011;43146;50.976;18.216;2024-01-27T08:34:00;30.00;;;7.60;;
57295;SDS011;43146;50.976;18.216;2024-01-27T08:36:26;22.10;;;5.40;;
57295;SDS011;43146;50.976;18.216;2024-01-27T08:38:51;40.30;;;12.60;;
57295;SDS011;43146;50.976;18.216;2024-01-27T08:41:17;24.30;;;6.20;;
57295;SDS011;43146;50.976;18.216;2024-01-27T08:43:43;24.20;;;6.90;;
57295;SDS011;43146;50.976;18.216;2024-01-27T08:46:08;18.40;;;5.20;;
57295;SDS011;43146;50.976;18.216;2024-01-27T08:48:38;27.60;;;7.50;;
57295;SDS011;43146;50.976;18.216;2024-01-27T08:51:08;38.40;;;12.80;;
57295;SDS011;43146;50.976;18.216;2024-01-27T08:53:35;35.30;;;16.60;;
57295;SDS011;43146;50.976;18.216;2024-01-27T08:56:01;30.90;;;12.70;;
57295;SDS011;43146;50.976;18.216;2024-01-27T08:58:27;35.60;;;14.70;;
57295;SDS011;43146;50.976;18.216;2024-01-27T09:00:55;49.40;;;23.50;;
57295;SDS011;43146;50.976;18.216;2024-01-27T09:03:21;38.40;;;17.80;;
57295;SDS011;43146;50.976;18.216;2024-01-27T09:05:47;47.40;;;21.80;;
57295;SDS011;43146;50.976;18.216;2024-01-27T09:08:13;37.50;;;15.20;;
57295;SDS011;43146;50.976;18.216;2024-01-27T09:10:38;144.60;;;84.90;;
57295;SDS011;43146;50.976;18.216;2024-01-27T09:13:04;83.30;;;40.90;;
57295;SDS011;43146;50.976;18.216;2024-01-27T09:15:33;107.20;;;64.20;;
57295;SDS011;43146;50.976;18.216;2024-01-27T09:17:58;142.70;;;69.20;;
57295;SDS011;43146;50.976;18.216;2024-01-27T09:20:24;211.80;;;109.70;;
57295;SDS011;43146;50.976;18.216;2024-01-27T09:22:49;206.80;;;112.60;;
57295;SDS011;43146;50.976;18.216;2024-01-27T09:25:16;99.40;;;43.50;;
57295;SDS011;43146;50.976;18.216;2024-01-27T09:27:42;148.00;;;66.40;;
57295;SDS011;43146;50.976;18.216;2024-01-27T09:30:07;137.80;;;65.30;;
57295;SDS011;43146;50.976;18.216;2024-01-27T09:32:34;98.50;;;53.90;;
57295;SDS011;43146;50.976;18.216;2024-01-27T09:34:59;108.90;;;49.40;;
57295;SDS011;43146;50.976;18.216;2024-01-27T09:37:25;128.00;;;59.40;;
57295;SDS011;43146;50.976;18.216;2024-01-27T09:39:51;108.20;;;46.30;;
57295;SDS011;43146;50.976;18.216;2024-01-27T09:42:17;128.00;;;64.50;;
57295;SDS011;43146;50.976;18.216;2024-01-27T09:44:46;107.40;;;44.60;;
57295;SDS011;43146;50.976;18.216;2024-01-27T09:47:16;79.60;;;29.80;;
57295;SDS011;43146;50.976;18.216;2024-01-27T09:49:42;104.20;;;39.60;;
57295;SDS011;43146;50.976;18.216;2024-01-27T09:52:08;77.60;;;22.40;;
57295;SDS011;43146;50.976;18.216;2024-01-27T09:54:35;31.80;;;10.80;;
57295;SDS011;43146;50.976;18.216;2024-01-27T09:57:01;23.80;;;9.90;;
57295;SDS011;43146;50.976;18.216;2024-01-27T09:59:28;32.40;;;10.50;;
57295;SDS011;43146;50.976;18.216;2024-01-27T10:01:56;52.00;;;17.90;;
57295;SDS011;43146;50.976;18.216;2024-01-27T10:04:23;51.40;;;16.80;;
57295;SDS011;43146;50.976;18.216;2024-01-27T10:06:50;52.40;;;17.70;;
57295;SDS011;43146;50.976;18.216;2024-01-27T10:09:16;46.20;;;16.20;;
57295;SDS011;43146;50.976;18.216;2024-01-27T10:11:45;66.10;;;20.60;;
57295;SDS011;43146;50.976;18.216;2024-01-27T10:14:12;23.70;;;5.50;;
57295;SDS011;43146;50.976;18.216;2024-01-27T10:16:44;58.70;;;18.10;;
57295;SDS011;43146;50.976;18.216;2024-01-27T10:19:19;62.60;;;17.50;;
57295;SDS011;43146;50.976;18.216;2024-01-27T10:21:46;49.20;;;12.10;;
57295;SDS011;43146;50.976;18.216;2024-01-27T10:24:13;39.90;;;11.00;;
57295;SDS011;43146;50.976;18.216;2024-01-27T10:26:39;43.90;;;12.90;;
57295;SDS011;43146;50.976;18.216;2024-01-27T10:29:05;31.20;;;8.80;;
57295;SDS011;43146;50.976;18.216;2024-01-27T10:31:33;27.50;;;7.20;;
57295;SDS011;43146;50.976;18.216;2024-01-27T10:33:59;29.30;;;8.50;;
57295;SDS011;43146;50.976;18.216;2024-01-27T10:36:39;25.90;;;6.90;;
57295;SDS011;43146;50.976;18.216;2024-01-27T10:39:18;22.20;;;5.70;;
57295;SDS011;43146;50.976;18.216;2024-01-27T10:41:48;27.50;;;7.90;;
57295;SDS011;43146;50.976;18.216;2024-01-27T10:44:15;20.50;;;6.20;;
57295;SDS011;43146;50.976;18.216;2024-01-27T10:46:45;19.20;;;6.30;;
57295;SDS011;43146;50.976;18.216;2024-01-27T10:49:13;28.00;;;7.20;;
57295;SDS011;43146;50.976;18.216;2024-01-27T10:51:43;45.50;;;19.00;;
57295;SDS011;43146;50.976;18.216;2024-01-27T10:54:13;25.30;;;5.10;;
57295;SDS011;43146;50.976;18.216;2024-01-27T10:56:41;19.20;;;5.60;;
57295;SDS011;43146;50.976;18.216;2024-01-27T10:59:08;26.30;;;6.10;;
57295;SDS011;43146;50.976;18.216;2024-01-27T11:01:35;50.00;;;17.50;;
57295;SDS011;43146;50.976;18.216;2024-01-27T11:04:02;38.90;;;16.50;;
57295;SDS011;43146;50.976;18.216;2024-01-27T11:06:29;43.30;;;13.40;;
57295;SDS011;43146;50.976;18.216;2024-01-27T11:08:55;22.70;;;6.00;;
57295;SDS011;43146;50.976;18.216;2024-01-27T11:11:24;34.60;;;10.50;;
57295;SDS011;43146;50.976;18.216;2024-01-27T11:13:49;31.40;;;13.00;;
57295;SDS011;43146;50.976;18.216;2024-01-27T11:16:16;23.80;;;7.40;;
57295;SDS011;43146;50.976;18.216;2024-01-27T11:18:43;20.70;;;5.40;;
57295;SDS011;43146;50.976;18.216;2024-01-27T11:21:13;25.30;;;6.20;;
57295;SDS011;43146;50.976;18.216;2024-01-27T11:23:40;39.30;;;10.90;;
57295;SDS011;43146;50.976;18.216;2024-01-27T11:26:06;44.50;;;11.00;;
57295;SDS011;43146;50.976;18.216;2024-01-27T11:28:33;36.50;;;14.90;;
57295;SDS011;43146;50.976;18.216;2024-01-27T11:31:02;22.50;;;6.90;;
57295;SDS011;43146;50.976;18.216;2024-01-27T11:33:29;17.70;;;5.00;;
57295;SDS011;43146;50.976;18.216;2024-01-27T11:36:01;30.20;;;9.50;;
57295;SDS011;43146;50.976;18.216;2024-01-27T11:38:31;22.80;;;6.40;;
57295;SDS011;43146;50.976;18.216;2024-01-27T11:41:00;15.50;;;6.10;;
57295;SDS011;43146;50.976;18.216;2024-01-27T11:43:27;29.80;;;5.50;;
57295;SDS011;43146;50.976;18.216;2024-01-27T11:45:58;22.20;;;4.80;;
57295;SDS011;43146;50.976;18.216;2024-01-27T11:48:25;27.40;;;5.30;;
57295;SDS011;43146;50.976;18.216;2024-01-27T11:51:07;20.00;;;5.30;;
57295;SDS011;43146;50.976;18.216;2024-01-27T11:53:36;21.40;;;5.30;;
57295;SDS011;43146;50.976;18.216;2024-01-27T11:56:03;26.80;;;7.10;;
57295;SDS011;43146;50.976;18.216;2024-01-27T11:58:30;26.50;;;10.80;;
57295;SDS011;43146;50.976;18.216;2024-01-27T12:00:56;21.20;;;8.10;;
57295;SDS011;43146;50.976;18.216;2024-01-27T12:03:22;17.00;;;5.30;;
57295;SDS011;43146;50.976;18.216;2024-01-27T12:05:48;23.90;;;8.00;;
57295;SDS011;43146;50.976;18.216;2024-01-27T12:08:14;32.40;;;4.70;;
57295;SDS011;43146;50.976;18.216;2024-01-27T12:10:39;27.30;;;7.80;;
57295;SDS011;43146;50.976;18.216;2024-01-27T12:13:05;18.10;;;4.50;;
57295;SDS011;43146;50.976;18.216;2024-01-27T12:15:30;16.60;;;4.60;;
57295;SDS011;43146;50.976;18.216;2024-01-27T12:17:56;18.90;;;4.70;;
57295;SDS011;43146;50.976;18.216;2024-01-27T12:20:22;19.20;;;4.90;;
57295;SDS011;43146;50.976;18.216;2024-01-27T12:22:48;19.20;;;5.10;;
57295;SDS011;43146;50.976;18.216;2024-01-27T12:25:16;17.10;;;4.60;;
57295;SDS011;43146;50.976;18.216;2024-01-27T12:27:43;18.80;;;5.80;;
57295;SDS011;43146;50.976;18.216;2024-01-27T12:30:09;17.30;;;6.10;;
57295;SDS011;43146;50.976;18.216;2024-01-27T12:32:35;18.10;;;4.50;;
57295;SDS011;43146;50.976;18.216;2024-01-27T12:35:08;16.10;;;3.50;;
57295;SDS011;43146;50.976;18.216;2024-01-27T12:37:34;16.20;;;4.10;;
57295;SDS011;43146;50.976;18.216;2024-01-27T12:40:00;16.60;;;4.60;;
57295;SDS011;43146;50.976;18.216;2024-01-27T12:42:26;15.30;;;4.40;;
57295;SDS011;43146;50.976;18.216;2024-01-27T12:44:51;22.30;;;6.50;;
57295;SDS011;43146;50.976;18.216;2024-01-27T12:47:17;28.90;;;8.10;;
57295;SDS011;43146;50.976;18.216;2024-01-27T12:49:46;19.70;;;6.00;;
57295;SDS011;43146;50.976;18.216;2024-01-27T12:52:12;20.00;;;4.30;;
57295;SDS011;43146;50.976;18.216;2024-01-27T12:54:38;23.50;;;5.80;;
57295;SDS011;43146;50.976;18.216;2024-01-27T12:57:04;18.30;;;3.90;;
57295;SDS011;43146;50.976;18.216;2024-01-27T12:59:31;23.20;;;6.90;;
57295;SDS011;43146;50.976;18.216;2024-01-27T13:01:57;21.50;;;4.50;;
57295;SDS011;43146;50.976;18.216;2024-01-27T13:04:22;97.30;;;42.30;;
57295;SDS011;43146;50.976;18.216;2024-01-27T13:06:48;19.20;;;5.50;;
57295;SDS011;43146;50.976;18.216;2024-01-27T13:09:14;23.70;;;5.00;;
57295;SDS011;43146;50.976;18.216;2024-01-27T13:11:40;33.70;;;10.00;;
57295;SDS011;43146;50.976;18.216;2024-01-27T13:14:05;208.10;;;91.30;;
57295;SDS011;43146;50.976;18.216;2024-01-27T13:16:32;50.10;;;19.50;;
57295;SDS011;43146;50.976;18.216;2024-01-27T13:18:57;225.70;;;84.90;;
57295;SDS011;43146;50.976;18.216;2024-01-27T13:21:23;34.60;;;11.60;;
57295;SDS011;43146;50.976;18.216;2024-01-27T13:23:49;31.20;;;10.00;;
57295;SDS011;43146;50.976;18.216;2024-01-27T13:26:17;40.40;;;13.90;;
57295;SDS011;43146;50.976;18.216;2024-01-27T13:28:43;33.20;;;12.20;;
57295;SDS011;43146;50.976;18.216;2024-01-27T13:31:08;18.40;;;4.60;;
57295;SDS011;43146;50.976;18.216;2024-01-27T13:33:34;20.00;;;5.20;;
57295;SDS011;43146;50.976;18.216;2024-01-27T13:36:01;125.70;;;48.50;;
57295;SDS011;43146;50.976;18.216;2024-01-27T13:38:27;22.10;;;5.50;;
57295;SDS011;43146;50.976;18.216;2024-01-27T13:40:52;24.50;;;6.50;;
57295;SDS011;43146;50.976;18.216;2024-01-27T13:43:18;23.50;;;7.60;;
57295;SDS011;43146;50.976;18.216;2024-01-27T13:45:44;62.00;;;19.20;;
57295;SDS011;43146;50.976;18.216;2024-01-27T13:48:11;218.90;;;74.20;;
57295;SDS011;43146;50.976;18.216;2024-01-27T13:50:37;32.90;;;9.90;;
57295;SDS011;43146;50.976;18.216;2024-01-27T13:53:03;246.80;;;85.10;;
57295;SDS011;43146;50.976;18.216;2024-01-27T13:55:31;132.80;;;36.60;;
57295;SDS011;43146;50.976;18.216;2024-01-27T13:57:56;314.60;;;85.70;;
57295;SDS011;43146;50.976;18.216;2024-01-27T14:00:22;254.10;;;79.10;;
57295;SDS011;43146;50.976;18.216;2024-01-27T14:02:48;241.10;;;93.50;;
57295;SDS011;43146;50.976;18.216;2024-01-27T14:05:14;48.80;;;19.40;;
57295;SDS011;43146;50.976;18.216;2024-01-27T14:07:40;103.60;;;43.60;;
57295;SDS011;43146;50.976;18.216;2024-01-27T14:10:06;32.40;;;12.00;;
57295;SDS011;43146;50.976;18.216;2024-01-27T14:12:31;31.40;;;15.00;;